Wetterverlauf

Letzte Wetterlage 18.04.2014 20:15
Wetterdiagramm
Tabellarische Darstellung
Datum Temperatur Windchill Feuchte Luftdruck Windrichtung Windstärke Niederschlag
18.04.2014 20:15 8 °C 8 °C 62 % 1014,3 hPa 0 1.7 0,00 mm
18.04.2014 20:05 9 °C 4 °C 60 % 1014,4 hPa 0 3.7 0,00 mm
18.04.2014 19:55 9 °C 5 °C 60 % 1014,3 hPa 0 3.4 0,00 mm
18.04.2014 19:45 9 °C 5 °C 59 % 1014,3 hPa 45 3.7 0,00 mm
18.04.2014 19:35 9 °C 7 °C 58 % 1014,2 hPa 0 2.7 0,00 mm
18.04.2014 19:25 10 °C 10 °C 55 % 1014,1 hPa 45 1.7 0,00 mm
18.04.2014 19:15 10 °C 8 °C 50 % 1014,1 hPa 338 2.4 0,00 mm
18.04.2014 19:05 10 °C 10 °C 56 % 1014,0 hPa 315 1.7 0,00 mm
18.04.2014 18:55 10 °C 7 °C 56 % 1014,0 hPa 23 3.1 0,00 mm
18.04.2014 18:45 10 °C 10 °C 57 % 1014,0 hPa 315 1.7 0,00 mm
18.04.2014 18:35 10 °C 7 °C 56 % 1014,0 hPa 0 2.7 0,00 mm
18.04.2014 18:25 10 °C 10 °C 56 % 1014,0 hPa 45 1.7 0,00 mm
18.04.2014 18:15 10 °C 10 °C 54 % 1014,0 hPa 315 1.7 0,00 mm
18.04.2014 18:05 10 °C 9 °C 55 % 1014,0 hPa 0 2.4 0,00 mm
18.04.2014 17:55 11 °C 10 °C 51 % 1013,9 hPa 45 2.4 0,00 mm
18.04.2014 17:45 12 °C 12 °C 50 % 1014,1 hPa 338 2.0 0,00 mm
18.04.2014 17:35 11 °C 9 °C 52 % 1013,9 hPa 0 2.7 0,00 mm
18.04.2014 17:25 11 °C 7 °C 53 % 1013,9 hPa 315 3.7 0,00 mm
18.04.2014 17:15 11 °C 8 °C 51 % 1013,8 hPa 0 3.1 0,00 mm
18.04.2014 17:05 12 °C 12 °C 49 % 1013,8 hPa 90 1.7 0,00 mm
18.04.2014 16:55 11 °C 11 °C 51 % 1013,9 hPa 315 1.7 0,00 mm
18.04.2014 16:45 12 °C 12 °C 50 % 1014,0 hPa 225 0.7 0,00 mm
18.04.2014 16:35 11 °C 9 °C 51 % 1014,1 hPa 293 2.7 0,00 mm
18.04.2014 16:25 12 °C 10 °C 41 % 1014,0 hPa 0 2.7 0,00 mm
18.04.2014 16:15 12 °C 12 °C 40 % 1014,1 hPa 293 1.7 0,00 mm
1
Empfehlen Sie wetter.com
| Mehr
Neue Wetterwarnung

Neue Niederschlagsmeldung
Neue Meldung
Regen Liveticker
    sehr starker Regen/Gewitter
    starker Regen/Gewitter
    mäßiger bis starker Regen
    mäßiger Regen
    leichter bis mäßiger Regen
    kein Regen